createdAt,value
2023-04-09T00:01:33.667Z,32.25
2023-04-09T00:04:01.742Z,32.25
2023-04-09T00:06:29.687Z,32.39
2023-04-09T00:08:57.716Z,31.92
2023-04-09T00:11:27.144Z,32.09
2023-04-09T00:13:55.085Z,32.28
2023-04-09T00:16:23.054Z,32.10
2023-04-09T00:18:51.969Z,32.05
2023-04-09T00:21:20.691Z,32.32
2023-04-09T00:23:48.609Z,32.15
2023-04-09T00:26:16.631Z,32.29
2023-04-09T00:28:46.087Z,32.23
2023-04-09T00:31:14.000Z,31.98
2023-04-09T00:33:42.143Z,31.92
2023-04-09T00:36:10.198Z,32.05
2023-04-09T00:38:38.248Z,32.12
2023-04-09T00:41:06.368Z,32.15
2023-04-09T00:43:34.325Z,32.14
2023-04-09T00:50:03.620Z,31.91
2023-04-09T00:52:31.521Z,32.13
2023-04-09T00:55:00.448Z,31.94
2023-04-09T00:57:28.929Z,32.10
2023-04-09T00:59:57.012Z,32.07
2023-04-09T02:12:48.792Z,31.88
2023-04-09T02:15:16.877Z,31.75
2023-04-09T02:17:44.836Z,31.80
2023-04-09T02:20:13.786Z,31.96
2023-04-09T02:22:41.672Z,31.73
2023-04-09T02:25:09.772Z,31.75
2023-04-09T02:27:37.722Z,32.00
2023-04-09T02:30:08.484Z,31.81
2023-04-09T02:32:36.430Z,31.87
2023-04-09T02:35:04.788Z,31.91
2023-04-09T02:37:32.664Z,31.85
2023-04-09T02:40:00.642Z,31.65
2023-04-09T02:42:28.605Z,31.74
2023-04-09T02:44:56.458Z,32.00
2023-04-09T02:47:27.221Z,31.82
2023-04-09T02:49:55.173Z,31.82
2023-04-09T02:52:26.064Z,31.71
2023-04-09T02:54:54.036Z,31.67
2023-04-09T02:57:22.068Z,31.84
2023-04-09T02:59:50.017Z,31.69
2023-04-09T03:02:18.129Z,31.84
2023-04-09T03:04:47.699Z,31.82
2023-04-09T03:07:15.609Z,31.67
2023-04-09T03:09:43.539Z,31.86
2023-04-09T03:12:11.617Z,31.76
2023-04-09T03:14:39.632Z,31.54
2023-04-09T03:17:07.553Z,31.89
2023-04-09T03:19:35.532Z,31.68
2023-04-09T03:22:04.920Z,31.66
2023-04-09T03:24:33.298Z,31.90
2023-04-09T03:27:01.577Z,31.90
2023-04-09T03:29:29.621Z,31.47
2023-04-09T03:31:57.626Z,31.51
2023-04-09T03:34:25.739Z,31.57
2023-04-09T03:36:53.704Z,31.58
2023-04-09T03:39:22.996Z,31.76
2023-04-09T03:41:50.992Z,31.88
2023-04-09T03:44:19.030Z,31.71
2023-04-09T03:46:46.986Z,31.79
2023-04-09T03:49:15.129Z,31.78
2023-04-09T03:51:44.635Z,31.75
2023-04-09T03:54:12.670Z,31.44
2023-04-09T03:56:42.095Z,31.78
2023-04-09T03:59:10.114Z,31.74
2023-04-09T04:01:38.150Z,31.78
2023-04-09T04:04:06.310Z,31.53
2023-04-09T04:06:34.919Z,31.79
2023-04-09T04:09:02.922Z,31.52
2023-04-09T04:11:31.234Z,31.55
2023-04-09T04:14:00.684Z,31.78
2023-04-09T04:16:28.676Z,31.67
2023-04-09T04:18:56.768Z,31.61
2023-04-09T04:21:24.782Z,31.58
2023-04-09T04:23:52.731Z,31.69
2023-04-09T04:26:20.839Z,31.32
2023-04-09T04:28:48.718Z,31.42
2023-04-09T04:31:18.012Z,31.40
2023-04-09T04:33:45.985Z,31.38
2023-04-09T04:36:14.609Z,31.54
2023-04-09T04:38:42.752Z,31.72
2023-04-09T04:41:11.670Z,31.69
2023-04-09T04:43:41.433Z,31.35
2023-04-09T04:46:09.477Z,31.44
2023-04-09T04:48:38.885Z,31.58
2023-04-09T04:51:07.005Z,31.41
2023-04-09T04:53:34.955Z,31.51
2023-04-09T04:56:02.823Z,31.39
2023-04-09T04:58:31.077Z,31.40
2023-04-09T05:01:00.436Z,31.32
2023-04-09T05:03:28.513Z,31.43
2023-04-09T05:05:57.882Z,31.50
2023-04-09T05:08:25.833Z,31.53
2023-04-09T05:10:56.191Z,31.43
2023-04-09T05:13:24.801Z,31.44
2023-04-09T05:15:52.776Z,31.38
2023-04-09T05:18:20.839Z,31.49
2023-04-09T05:20:48.839Z,31.54
2023-04-09T05:23:18.174Z,31.52
2023-04-09T05:25:46.249Z,31.26
2023-04-09T05:28:14.297Z,31.18
2023-04-09T05:30:42.409Z,31.27
2023-04-09T05:33:10.494Z,31.43
2023-04-09T05:35:40.083Z,31.44
2023-04-09T05:38:08.040Z,31.45
2023-04-09T05:40:37.475Z,31.57
2023-04-09T05:43:05.647Z,31.38
2023-04-09T05:45:33.658Z,31.22
2023-04-09T05:48:01.930Z,31.36
2023-04-09T05:50:30.050Z,31.12
2023-04-09T05:52:58.013Z,31.47
2023-04-09T05:55:26.018Z,31.08
2023-04-09T05:57:55.399Z,31.22
2023-04-09T06:00:23.347Z,31.43
2023-04-09T06:02:51.494Z,31.36
2023-04-09T06:05:19.621Z,31.19
2023-04-09T06:07:47.611Z,31.46
2023-04-09T06:10:15.615Z,31.45
2023-04-09T06:12:43.794Z,31.50
2023-04-09T06:15:13.385Z,31.27
2023-04-09T06:17:41.460Z,31.53
2023-04-09T06:20:10.552Z,31.48
2023-04-09T06:22:38.536Z,31.68
2023-04-09T06:25:07.288Z,31.16
2023-04-09T06:27:35.265Z,31.36
2023-04-09T06:30:03.308Z,31.47
2023-04-09T06:32:37.653Z,31.33
2023-04-09T06:35:11.725Z,31.30
2023-04-09T06:37:39.710Z,31.41
2023-04-09T06:40:08.888Z,31.46
2023-04-09T06:42:37.733Z,31.20
2023-04-09T06:45:08.762Z,31.54
2023-04-09T06:47:38.372Z,31.28
2023-04-09T06:50:07.358Z,31.54
2023-04-09T06:52:35.413Z,31.47
2023-04-09T06:55:03.401Z,31.26
2023-04-09T06:57:31.373Z,31.33
2023-04-09T06:59:59.637Z,31.28
2023-04-09T07:04:56.943Z,31.25
2023-04-09T07:07:25.835Z,31.58
2023-04-09T07:09:54.172Z,31.16
2023-04-09T07:12:28.269Z,31.36
2023-04-09T07:14:59.169Z,31.54
2023-04-09T07:17:27.149Z,31.29
2023-04-09T07:19:56.571Z,31.56
2023-04-09T07:22:24.754Z,31.53
2023-04-09T07:24:55.169Z,31.37
2023-04-09T07:27:23.366Z,31.32
2023-04-09T07:29:51.507Z,31.50
2023-04-09T07:32:19.688Z,31.25
2023-04-09T07:34:47.736Z,31.55
2023-04-09T07:37:17.060Z,31.49
2023-04-09T07:39:44.991Z,31.30
2023-04-09T07:42:12.966Z,31.36
2023-04-09T07:44:41.119Z,31.58
2023-04-09T07:47:09.243Z,31.55
2023-04-09T07:49:38.083Z,31.36
2023-04-09T07:52:06.537Z,31.32
2023-04-09T07:54:36.550Z,31.46
2023-04-09T07:57:04.889Z,31.59
2023-04-09T07:59:32.916Z,31.56
2023-04-09T08:02:01.033Z,31.67
2023-04-09T08:04:29.418Z,31.71
2023-04-09T08:06:58.137Z,31.66
2023-04-09T08:09:26.514Z,31.38
2023-04-09T08:11:55.920Z,31.69
2023-04-09T08:14:23.948Z,31.54
2023-04-09T08:16:52.897Z,31.66
2023-04-09T08:19:21.817Z,31.78
2023-04-09T08:21:49.944Z,31.39
2023-04-09T08:24:18.477Z,31.33
2023-04-09T08:26:47.731Z,31.44
2023-04-09T08:29:18.136Z,31.38
2023-04-09T08:31:46.240Z,31.41
2023-04-09T08:34:16.290Z,31.56
2023-04-09T08:36:46.760Z,31.38
2023-04-09T08:39:14.731Z,31.39
2023-04-09T08:41:43.709Z,31.19
2023-04-09T08:44:11.735Z,31.26
2023-04-09T08:46:41.082Z,31.03
2023-04-09T08:49:10.059Z,31.29
2023-04-09T08:51:39.411Z,31.27
2023-04-09T08:54:07.524Z,31.50
2023-04-09T08:56:35.775Z,31.13
2023-04-09T08:59:03.747Z,31.49
2023-04-09T09:01:32.626Z,31.13
2023-04-09T09:04:04.335Z,31.47
2023-04-09T09:06:33.550Z,31.19
2023-04-09T09:09:03.635Z,31.44
2023-04-09T09:11:31.650Z,31.47
2023-04-09T09:14:00.348Z,31.34
2023-04-09T09:16:28.493Z,31.21
2023-04-09T09:18:57.438Z,31.40
2023-04-09T09:21:27.429Z,31.25
2023-04-09T09:23:55.476Z,31.04
2023-04-09T09:26:24.620Z,31.53
2023-04-09T09:28:52.967Z,31.27
2023-04-09T09:31:22.324Z,31.39
2023-04-09T09:33:50.687Z,31.48
2023-04-09T09:36:33.331Z,31.23
2023-04-09T09:39:03.851Z,31.13
2023-04-09T09:41:31.925Z,31.22
2023-04-09T09:43:59.916Z,31.35
2023-04-09T09:46:28.706Z,31.05
2023-04-09T09:48:56.852Z,31.10
2023-04-09T09:51:27.846Z,31.35
2023-04-09T09:53:58.292Z,31.19
2023-04-09T09:56:32.333Z,31.34
2023-04-09T09:59:07.599Z,31.26
2023-04-09T10:01:36.675Z,31.04
2023-04-09T10:04:05.984Z,31.07
2023-04-09T10:06:34.245Z,31.24
2023-04-09T10:09:06.414Z,31.27
2023-04-09T10:11:34.628Z,31.15
2023-04-09T10:14:02.707Z,31.22
2023-04-09T10:16:31.369Z,31.09
2023-04-09T10:19:00.351Z,30.91
2023-04-09T10:21:36.609Z,30.95
2023-04-09T10:24:07.993Z,30.87
2023-04-09T10:26:36.642Z,31.34
2023-04-09T10:29:07.019Z,31.25
2023-04-09T10:31:48.527Z,30.77
2023-04-09T10:34:17.213Z,31.17
2023-04-09T10:36:45.727Z,30.89
2023-04-09T10:39:15.110Z,30.91
2023-04-09T10:41:43.265Z,31.14
2023-04-09T10:44:21.543Z,31.15
2023-04-09T10:46:49.926Z,30.94
2023-04-09T10:49:18.870Z,31.20
2023-04-09T10:51:51.985Z,31.18
2023-04-09T10:54:46.802Z,31.06
2023-04-09T10:57:16.387Z,31.26
2023-04-09T10:59:45.268Z,31.10
2023-04-09T11:02:40.315Z,31.25
2023-04-09T11:05:20.439Z,30.93
2023-04-09T11:07:50.737Z,30.92
2023-04-09T11:10:20.705Z,30.97
2023-04-09T11:12:49.454Z,30.98
2023-04-09T11:15:18.292Z,31.29
2023-04-09T11:17:46.884Z,30.95
2023-04-09T11:20:15.163Z,31.39
2023-04-09T11:22:43.101Z,31.35
2023-04-09T11:25:11.175Z,31.20
2023-04-09T11:27:40.735Z,31.23
2023-04-09T11:30:09.843Z,30.97
2023-04-09T11:32:37.869Z,31.18
2023-04-09T11:35:07.027Z,31.08
2023-04-09T11:37:37.404Z,31.16
2023-04-09T11:40:05.969Z,31.21
2023-04-09T11:42:34.191Z,31.10
2023-04-09T11:45:03.648Z,30.92
2023-04-09T11:47:31.661Z,31.20
2023-04-09T11:49:59.744Z,31.14
2023-04-09T11:52:28.103Z,31.21
2023-04-09T11:54:56.097Z,31.29
2023-04-09T11:57:24.115Z,30.94
2023-04-09T11:59:52.128Z,31.24
2023-04-09T12:02:23.030Z,30.94
2023-04-09T12:04:51.774Z,30.83
2023-04-09T12:07:19.834Z,31.10
2023-04-09T12:09:49.261Z,31.16
2023-04-09T12:12:20.468Z,30.82
2023-04-09T12:14:48.613Z,30.93
2023-04-09T12:17:16.512Z,31.18
2023-04-09T12:19:45.834Z,31.27
2023-04-09T12:22:13.749Z,30.99
2023-04-09T12:24:41.726Z,30.83
2023-04-09T12:27:10.975Z,31.24
2023-04-09T12:29:38.990Z,30.90
2023-04-09T12:32:07.503Z,30.94
2023-04-09T12:34:36.030Z,31.23
2023-04-09T12:37:05.514Z,31.19
2023-04-09T12:39:34.488Z,31.25
2023-04-09T12:42:02.497Z,30.87
2023-04-09T12:44:30.501Z,31.03
2023-04-09T12:46:58.521Z,31.21
2023-04-09T12:49:26.446Z,31.12
2023-04-09T12:51:54.321Z,30.97
2023-04-09T12:54:23.675Z,30.98
2023-04-09T12:56:51.816Z,30.96
2023-04-09T12:59:19.887Z,31.26
2023-04-09T13:01:47.921Z,31.28
2023-04-09T13:04:16.482Z,31.06
2023-04-09T13:06:44.597Z,31.02
2023-04-09T13:09:12.498Z,31.42
2023-04-09T13:11:42.007Z,31.05
2023-04-09T13:14:13.624Z,31.34
2023-04-09T13:16:41.924Z,31.02
2023-04-09T13:19:10.264Z,31.12
2023-04-09T13:21:38.268Z,31.45
2023-04-09T13:24:06.892Z,31.32
2023-04-09T13:26:34.849Z,31.38
2023-04-09T13:29:04.367Z,31.08
2023-04-09T13:31:32.502Z,31.28
2023-04-09T13:34:00.925Z,31.28
2023-04-09T13:36:28.943Z,31.17
2023-04-09T13:39:04.141Z,31.04
2023-04-09T13:41:33.104Z,31.32
2023-04-09T13:44:01.247Z,31.35
2023-04-09T13:46:31.170Z,31.30
2023-04-09T13:48:59.136Z,31.40
2023-04-09T13:51:27.236Z,31.11
2023-04-09T13:53:55.276Z,31.42
2023-04-09T13:56:23.280Z,31.17
2023-04-09T13:58:51.896Z,31.42
2023-04-09T14:01:20.173Z,31.49
2023-04-09T14:03:49.553Z,31.37
2023-04-09T14:06:17.748Z,31.17
2023-04-09T14:08:45.950Z,31.29
2023-04-09T14:11:15.714Z,31.53
2023-04-09T14:13:43.703Z,31.34
2023-04-09T14:16:11.743Z,31.58
2023-04-09T14:18:40.056Z,31.26
2023-04-09T14:21:10.350Z,31.37
2023-04-09T14:23:38.554Z,31.62
2023-04-09T14:26:07.042Z,31.25
2023-04-09T14:28:35.057Z,31.53
2023-04-09T14:31:03.214Z,31.36
2023-04-09T14:33:31.432Z,31.42
2023-04-09T14:35:59.766Z,31.60
2023-04-09T14:38:29.417Z,31.59
2023-04-09T14:40:57.409Z,31.25
2023-04-09T14:43:25.565Z,31.23
2023-04-09T14:45:54.384Z,31.34
2023-04-09T14:48:22.345Z,31.53
2023-04-09T14:50:51.349Z,31.58
2023-04-09T14:53:19.370Z,31.64
2023-04-09T14:55:48.720Z,31.54
2023-04-09T14:58:16.724Z,31.33
2023-04-09T15:00:45.219Z,31.32
2023-04-09T15:03:13.458Z,31.31
2023-04-09T15:05:41.556Z,31.24
2023-04-09T15:08:09.595Z,31.67
2023-04-09T15:10:37.720Z,31.39
2023-04-09T15:13:07.029Z,31.55
2023-04-09T15:15:35.149Z,31.60
2023-04-09T15:18:05.937Z,31.68
2023-04-09T15:20:37.550Z,31.54
2023-04-09T15:23:05.521Z,31.71
2023-04-09T15:25:33.483Z,31.69
2023-04-09T15:28:01.533Z,31.62
2023-04-09T15:30:31.114Z,31.43
2023-04-09T15:32:59.093Z,31.74
2023-04-09T15:35:29.456Z,31.35
2023-04-09T15:37:57.711Z,31.48
2023-04-09T15:40:25.938Z,31.75
2023-04-09T15:42:53.906Z,31.65
2023-04-09T15:45:21.987Z,31.49
2023-04-09T15:47:51.472Z,31.32
2023-04-09T15:50:19.689Z,31.36
2023-04-09T15:52:48.817Z,31.42
2023-04-09T15:55:17.224Z,31.21
2023-04-09T15:57:46.831Z,31.42
2023-04-09T16:00:15.599Z,31.27
2023-04-09T16:02:43.631Z,31.25
2023-04-09T16:05:13.019Z,31.37
2023-04-09T16:07:41.245Z,31.47
2023-04-09T16:10:10.111Z,31.48
2023-04-09T16:12:38.036Z,31.66
2023-04-09T16:15:06.777Z,31.42
2023-04-09T16:17:40.565Z,31.74
2023-04-09T16:20:10.053Z,31.46
2023-04-09T16:22:39.418Z,31.66
2023-04-09T16:25:08.220Z,31.47
2023-04-09T16:27:36.219Z,31.81
2023-04-09T16:30:04.564Z,31.33
2023-04-09T16:32:32.738Z,31.45
2023-04-09T16:35:00.922Z,31.76
2023-04-09T16:37:29.386Z,31.78
2023-04-09T16:39:59.088Z,31.66
2023-04-09T16:42:27.428Z,31.64
2023-04-09T16:44:55.439Z,31.36
2023-04-09T16:47:23.385Z,31.88
2023-04-09T16:49:51.504Z,31.63
2023-04-09T16:52:19.527Z,31.75
2023-04-09T16:54:47.528Z,31.52
2023-04-09T16:57:17.192Z,31.78
2023-04-09T16:59:45.604Z,31.91
2023-04-09T17:02:13.541Z,31.60
2023-04-09T17:04:42.077Z,32.08
2023-04-09T17:07:10.010Z,31.96
2023-04-09T17:09:38.150Z,32.27
2023-04-09T17:12:06.157Z,31.88
2023-04-09T17:14:36.986Z,32.27
2023-04-09T17:17:05.171Z,31.96
2023-04-09T17:19:33.167Z,32.33
2023-04-09T17:22:01.236Z,32.31
2023-04-09T17:24:29.970Z,32.15
2023-04-09T17:26:57.854Z,32.19
2023-04-09T17:29:25.767Z,32.35
2023-04-09T17:31:55.315Z,32.37
2023-04-09T17:34:23.660Z,32.36
2023-04-09T17:36:56.545Z,32.17
2023-04-09T17:39:25.432Z,32.46
2023-04-09T17:41:56.339Z,32.60
2023-04-09T17:44:25.015Z,32.30
2023-04-09T17:46:54.463Z,32.43
2023-04-09T17:49:22.773Z,32.22
2023-04-09T17:51:50.796Z,32.37
2023-04-09T17:54:18.798Z,32.67
2023-04-09T17:56:47.034Z,32.47
2023-04-09T17:59:14.972Z,32.69
2023-04-09T18:01:43.109Z,32.76
2023-04-09T18:04:12.805Z,32.73
2023-04-09T18:06:41.169Z,32.85
2023-04-09T18:09:09.060Z,33.03
2023-04-09T18:11:37.148Z,32.61
2023-04-09T18:14:08.293Z,32.79
2023-04-09T18:16:38.132Z,32.83
2023-04-09T18:19:06.147Z,32.68
2023-04-09T18:21:36.475Z,32.85
2023-04-09T18:24:04.491Z,33.29
2023-04-09T18:26:33.813Z,32.96
2023-04-09T18:29:01.989Z,32.80
2023-04-09T18:31:30.094Z,33.00
2023-04-09T18:33:58.191Z,33.26
2023-04-09T18:36:28.181Z,32.82
2023-04-09T18:38:57.964Z,32.95
2023-04-09T18:41:26.164Z,32.79
2023-04-09T18:43:54.720Z,33.07
2023-04-09T18:46:22.931Z,33.07
2023-04-09T18:48:51.142Z,32.78
2023-04-09T18:51:20.757Z,33.04
2023-04-09T18:53:52.976Z,33.16
2023-04-09T18:56:22.448Z,33.11
2023-04-09T18:58:51.960Z,33.04
2023-04-09T19:01:20.807Z,32.87
2023-04-09T19:03:48.874Z,33.14
2023-04-09T19:06:18.026Z,32.90
2023-04-09T19:08:46.298Z,33.25
2023-04-09T19:11:14.359Z,33.31
2023-04-09T19:13:43.769Z,33.20
2023-04-09T19:16:12.446Z,33.16
2023-04-09T19:18:40.676Z,33.22
2023-04-09T19:21:09.053Z,33.20
2023-04-09T19:23:37.009Z,33.48
2023-04-09T19:26:05.727Z,33.31
2023-04-09T19:28:33.767Z,33.38
2023-04-09T19:33:31.942Z,33.37
2023-04-09T19:36:00.719Z,33.19
2023-04-09T19:38:28.792Z,33.37
2023-04-09T19:40:57.043Z,33.45
2023-04-09T19:43:25.057Z,33.02
2023-04-09T19:45:53.101Z,33.42
2023-04-09T19:48:22.472Z,33.42
2023-04-09T19:50:50.477Z,33.37
2023-04-09T19:53:18.550Z,33.31
2023-04-09T19:55:46.579Z,33.55
2023-04-09T19:58:14.479Z,33.64
2023-04-09T20:00:42.526Z,33.60
2023-04-09T20:03:10.682Z,33.32
2023-04-09T20:05:40.201Z,33.67
2023-04-09T20:08:12.378Z,33.25
2023-04-09T20:10:45.016Z,33.30
2023-04-09T20:13:12.953Z,33.62
2023-04-09T20:15:41.692Z,33.59
2023-04-09T20:18:09.912Z,33.54
2023-04-09T20:20:39.288Z,33.50
2023-04-09T20:23:07.159Z,33.33
2023-04-09T20:25:36.768Z,33.51
2023-04-09T20:28:04.909Z,33.57
2023-04-09T20:30:33.189Z,33.21
2023-04-09T20:33:02.770Z,33.35
2023-04-09T20:35:35.836Z,33.50
2023-04-09T20:38:07.603Z,33.58
2023-04-09T20:40:37.264Z,33.33
2023-04-09T20:43:05.322Z,33.32
2023-04-09T20:45:33.424Z,33.19
2023-04-09T20:48:01.558Z,33.47
2023-04-09T20:50:30.048Z,33.47
2023-04-09T20:52:59.391Z,33.44
2023-04-09T20:55:28.780Z,33.52
2023-04-09T20:57:56.678Z,33.35
2023-04-09T21:00:24.807Z,33.43
2023-04-09T21:02:52.844Z,33.34
2023-04-09T21:05:23.959Z,33.58
2023-04-09T21:07:52.257Z,33.30
2023-04-09T21:10:20.436Z,33.46
2023-04-09T21:12:49.813Z,33.45
2023-04-09T21:15:17.904Z,33.30
2023-04-09T21:17:46.020Z,33.54
2023-04-09T21:20:15.157Z,33.61
2023-04-09T21:22:43.271Z,33.31
2023-04-09T21:25:12.730Z,34.24
2023-04-09T21:27:42.567Z,33.48
2023-04-09T21:30:12.855Z,33.76
2023-04-09T21:32:40.909Z,33.46
2023-04-09T21:35:09.264Z,33.89
2023-04-09T21:37:46.138Z,33.46
2023-04-09T21:40:17.790Z,33.69
2023-04-09T21:42:49.204Z,33.39
2023-04-09T21:45:20.126Z,33.71
2023-04-09T21:47:48.195Z,33.48
2023-04-09T21:50:17.542Z,33.51
2023-04-09T21:52:46.912Z,33.28
2023-04-09T21:55:16.139Z,33.34
2023-04-09T21:57:45.365Z,33.72
2023-04-09T22:00:16.322Z,33.39
2023-04-09T22:02:47.298Z,33.37
2023-04-09T22:05:16.387Z,33.64
2023-04-09T22:07:45.711Z,33.40
2023-04-09T22:10:15.029Z,33.62
2023-04-09T22:12:44.352Z,33.57
2023-04-09T22:15:13.692Z,33.68
2023-04-09T22:17:42.734Z,33.48
2023-04-09T22:20:13.625Z,33.47
2023-04-09T22:22:43.913Z,33.64
2023-04-09T22:25:13.663Z,33.40
2023-04-09T22:27:43.567Z,33.38
2023-04-09T22:30:12.789Z,33.42
2023-04-09T22:32:42.234Z,33.57
2023-04-09T22:35:12.188Z,33.39
2023-04-09T22:37:42.734Z,33.51
2023-04-09T22:40:15.593Z,33.72
2023-04-09T22:42:43.757Z,33.53
2023-04-09T22:45:13.151Z,33.41
2023-04-09T22:47:42.279Z,33.64
2023-04-09T22:50:13.517Z,33.73
2023-04-09T22:52:44.004Z,33.48
2023-04-09T22:55:13.767Z,33.53
2023-04-09T22:57:44.377Z,33.62
2023-04-09T23:00:13.172Z,33.46
2023-04-09T23:02:43.319Z,33.81
2023-04-09T23:05:12.924Z,33.72
2023-04-09T23:07:45.107Z,33.64
2023-04-09T23:10:14.299Z,33.65
2023-04-09T23:12:43.750Z,33.70
2023-04-09T23:15:12.629Z,33.90
2023-04-09T23:17:42.781Z,33.89
2023-04-09T23:20:14.836Z,33.61
2023-04-09T23:22:46.921Z,33.90
2023-04-09T23:25:16.513Z,33.97
2023-04-09T23:27:46.736Z,33.83
2023-04-09T23:30:18.202Z,33.63
2023-04-09T23:32:47.624Z,34.01
2023-04-09T23:35:16.944Z,33.59
2023-04-09T23:37:54.524Z,33.65
2023-04-09T23:40:24.000Z,33.69
2023-04-09T23:42:52.051Z,33.62
2023-04-09T23:45:23.939Z,33.91
2023-04-09T23:47:53.770Z,34.01
2023-04-09T23:50:23.146Z,34.06
2023-04-09T23:52:59.854Z,33.68
2023-04-09T23:55:29.033Z,33.69
2023-04-09T23:57:58.176Z,34.03
